Terminal Aerodrome Forecast
Issued by NWS Wichita, KS

Home | Current Version | Previous Version | Text Only | Print | Product List | Glossary On
Versions: 1 2 3 4 5 6 7 8 9 10 11 12 13 14 15 16 17 18 19 20 21 22 23 24 25 26
000
FTUS43 KICT 241722
TAFICT
TAF
KICT 241722Z 2418/2518 18018G26KT P6SM SCT040 SCT200
     FM250000 16007KT P6SM BKN120
     FM250200 35010KT P6SM BKN100
     FM250600 35015G23KT P6SM VCSH BKN040
     FM251400 34017G24KT P6SM BKN015=

USA.gov is the U.S. government's official web portal to all federal, state and local government web resources and services.